Aviation Digital Data Service (ADDS)

Output produced by METARs form (1741 UTC 19 April 2014)
found at http://aviationweather.gov/adds/metars/
 
METAR text: KSPB 191653Z AUTO 16003KT 10SM OVC043 09/06 A2984 RMK AO2 SLP104 T00940061
Conditions at: KSPB (SCAPPOOSE , OR, US) observed 1653 UTC 19 April 2014
Temperature: 9.4°C (49°F)
Dewpoint: 6.1°C (43°F) [RH = 80%]
Pressure (altimeter): 29.84 inches Hg (1010.6 mb)
[Sea-level pressure: 1010.4 mb]
Winds: from the SSE (160 degrees) at 3 MPH (3 knots; 1.6 m/s)
Visibility: 10 or more miles (16+ km)
Ceiling: 4300 feet AGL
Clouds: overcast cloud deck at 4300 feet AGL
Weather: automated observation with no human augmentation;
there may or may not be significant weather present at this time

METAR text: KSPB 191553Z AUTO 00000KT 10SM OVC049 07/06 A2984 RMK AO2 RAB37E52 SLP104 P0000 T00720056
Conditions at: KSPB (SCAPPOOSE , OR, US) observed 1553 UTC 19 April 2014
Temperature: 7.2°C (45°F)
Dewpoint: 5.6°C (42°F) [RH = 90%]
Pressure (altimeter): 29.84 inches Hg (1010.6 mb)
[Sea-level pressure: 1010.4 mb]
Winds: calm
Visibility: 10 or more miles (16+ km)
Ceiling: 4900 feet AGL
Clouds: overcast cloud deck at 4900 feet AGL
Weather: automated observation with no human augmentation;
there may or may not be significant weather present at this time